sensor_id;sensor_type;location;lat;lon;timestamp;temperature;humidity
4604;DHT22;2314;48.272;11.562;2022-12-17T00:01:31;-3.00;99.90
4604;DHT22;2314;48.272;11.562;2022-12-17T00:04:15;-3.00;99.90
4604;DHT22;2314;48.272;11.562;2022-12-17T00:07:01;-3.00;99.90
4604;DHT22;2314;48.272;11.562;2022-12-17T00:09:46;-3.00;99.90
4604;DHT22;2314;48.272;11.562;2022-12-17T00:12:30;-3.10;99.90
4604;DHT22;2314;48.272;11.562;2022-12-17T00:15:15;-3.10;99.90
4604;DHT22;2314;48.272;11.562;2022-12-17T00:18:04;-3.10;99.90
4604;DHT22;2314;48.272;11.562;2022-12-17T00:20:53;-3.10;99.90
4604;DHT22;2314;48.272;11.562;2022-12-17T00:23:39;-3.20;99.90
4604;DHT22;2314;48.272;11.562;2022-12-17T00:26:24;-3.20;99.90
4604;DHT22;2314;48.272;11.562;2022-12-17T00:29:09;-3.20;99.90
4604;DHT22;2314;48.272;11.562;2022-12-17T00:31:53;-3.20;99.90
4604;DHT22;2314;48.272;11.562;2022-12-17T00:34:38;-3.20;99.90
4604;DHT22;2314;48.272;11.562;2022-12-17T00:37:22;-3.20;99.90
4604;DHT22;2314;48.272;11.562;2022-12-17T00:40:09;-3.20;99.90
4604;DHT22;2314;48.272;11.562;2022-12-17T00:43:00;-3.20;99.90
4604;DHT22;2314;48.272;11.562;2022-12-17T00:45:44;-3.20;99.90
4604;DHT22;2314;48.272;11.562;2022-12-17T00:48:29;-3.20;99.90
4604;DHT22;2314;48.272;11.562;2022-12-17T00:51:14;-3.20;99.90
4604;DHT22;2314;48.272;11.562;2022-12-17T00:53:55;-3.20;99.90
4604;DHT22;2314;48.272;11.562;2022-12-17T00:56:41;-3.20;99.90
4604;DHT22;2314;48.272;11.562;2022-12-17T00:59:25;-3.20;99.90
4604;DHT22;2314;48.272;11.562;2022-12-17T01:02:10;-3.20;99.90
4604;DHT22;2314;48.272;11.562;2022-12-17T01:04:55;-3.20;99.90
4604;DHT22;2314;48.272;11.562;2022-12-17T01:07:39;-3.20;99.90
4604;DHT22;2314;48.272;11.562;2022-12-17T01:10:23;-3.20;99.90
4604;DHT22;2314;48.272;11.562;2022-12-17T01:13:11;-3.20;99.90
4604;DHT22;2314;48.272;11.562;2022-12-17T01:16:01;-3.20;99.90
4604;DHT22;2314;48.272;11.562;2022-12-17T01:18:46;-3.20;99.90
4604;DHT22;2314;48.272;11.562;2022-12-17T01:21:31;-3.30;99.90
4604;DHT22;2314;48.272;11.562;2022-12-17T01:24:15;-3.30;99.90
4604;DHT22;2314;48.272;11.562;2022-12-17T01:27:00;-3.30;99.90
4604;DHT22;2314;48.272;11.562;2022-12-17T01:29:46;-3.30;99.90
4604;DHT22;2314;48.272;11.562;2022-12-17T01:32:31;-3.30;99.90
4604;DHT22;2314;48.272;11.562;2022-12-17T01:35:15;-3.30;99.90
4604;DHT22;2314;48.272;11.562;2022-12-17T01:37:59;-3.30;99.90
4604;DHT22;2314;48.272;11.562;2022-12-17T01:40:44;-3.40;99.90
4604;DHT22;2314;48.272;11.562;2022-12-17T01:43:36;-3.40;99.90
4604;DHT22;2314;48.272;11.562;2022-12-17T01:46:23;-3.40;99.90
4604;DHT22;2314;48.272;11.562;2022-12-17T01:49:10;-3.50;99.90
4604;DHT22;2314;48.272;11.562;2022-12-17T01:51:58;-3.50;99.90
4604;DHT22;2314;48.272;11.562;2022-12-17T01:54:43;-3.60;99.90
4604;DHT22;2314;48.272;11.562;2022-12-17T01:57:28;-3.70;99.90
4604;DHT22;2314;48.272;11.562;2022-12-17T02:00:17;-3.60;99.90
4604;DHT22;2314;48.272;11.562;2022-12-17T02:03:03;-3.70;99.90
4604;DHT22;2314;48.272;11.562;2022-12-17T02:05:54;-3.70;99.90
4604;DHT22;2314;48.272;11.562;2022-12-17T02:08:52;-3.70;99.90
4604;DHT22;2314;48.272;11.562;2022-12-17T02:11:47;-3.60;99.90
4604;DHT22;2314;48.272;11.562;2022-12-17T02:14:40;-3.60;99.90
4604;DHT22;2314;48.272;11.562;2022-12-17T02:17:31;-3.60;99.90
4604;DHT22;2314;48.272;11.562;2022-12-17T02:20:25;-3.60;99.90
4604;DHT22;2314;48.272;11.562;2022-12-17T02:23:24;-3.60;99.90
4604;DHT22;2314;48.272;11.562;2022-12-17T02:29:13;-3.60;99.90
4604;DHT22;2314;48.272;11.562;2022-12-17T02:31:59;-3.60;99.90
4604;DHT22;2314;48.272;11.562;2022-12-17T02:34:44;-3.60;99.90
4604;DHT22;2314;48.272;11.562;2022-12-17T02:37:29;-3.60;99.90
4604;DHT22;2314;48.272;11.562;2022-12-17T02:40:14;-3.70;99.90
4604;DHT22;2314;48.272;11.562;2022-12-17T02:43:00;-3.70;99.90
4604;DHT22;2314;48.272;11.562;2022-12-17T02:45:45;-3.70;99.90
4604;DHT22;2314;48.272;11.562;2022-12-17T02:48:30;-3.70;99.90
4604;DHT22;2314;48.272;11.562;2022-12-17T02:51:15;-3.70;99.90
4604;DHT22;2314;48.272;11.562;2022-12-17T02:54:02;-3.70;99.90
4604;DHT22;2314;48.272;11.562;2022-12-17T02:56:49;-3.70;99.90
4604;DHT22;2314;48.272;11.562;2022-12-17T02:59:35;-3.70;99.90
4604;DHT22;2314;48.272;11.562;2022-12-17T03:02:20;-3.70;99.90
4604;DHT22;2314;48.272;11.562;2022-12-17T03:05:05;-3.70;99.90
4604;DHT22;2314;48.272;11.562;2022-12-17T03:07:50;-3.70;99.90
4604;DHT22;2314;48.272;11.562;2022-12-17T03:10:34;-3.70;99.90
4604;DHT22;2314;48.272;11.562;2022-12-17T03:13:23;-3.70;99.90
4604;DHT22;2314;48.272;11.562;2022-12-17T03:16:11;-3.70;99.90
4604;DHT22;2314;48.272;11.562;2022-12-17T03:18:57;-3.70;99.90
4604;DHT22;2314;48.272;11.562;2022-12-17T03:21:42;-3.70;99.90
4604;DHT22;2314;48.272;11.562;2022-12-17T03:24:27;-3.80;99.90
4604;DHT22;2314;48.272;11.562;2022-12-17T03:27:12;-3.70;99.90
4604;DHT22;2314;48.272;11.562;2022-12-17T03:30:05;-3.70;99.90
4604;DHT22;2314;48.272;11.562;2022-12-17T03:32:52;-3.80;99.90
4604;DHT22;2314;48.272;11.562;2022-12-17T03:35:36;-3.80;99.90
4604;DHT22;2314;48.272;11.562;2022-12-17T03:38:21;-3.80;99.90
4604;DHT22;2314;48.272;11.562;2022-12-17T03:41:05;-3.80;99.90
4604;DHT22;2314;48.272;11.562;2022-12-17T03:43:46;-3.80;99.90
4604;DHT22;2314;48.272;11.562;2022-12-17T03:46:42;-3.90;99.90
4604;DHT22;2314;48.272;11.562;2022-12-17T03:49:28;-3.80;99.90
4604;DHT22;2314;48.272;11.562;2022-12-17T03:52:12;-3.90;99.90
4604;DHT22;2314;48.272;11.562;2022-12-17T03:54:57;-3.90;99.90
4604;DHT22;2314;48.272;11.562;2022-12-17T03:57:41;-3.90;99.90
4604;DHT22;2314;48.272;11.562;2022-12-17T04:00:26;-3.90;99.90
4604;DHT22;2314;48.272;11.562;2022-12-17T04:03:10;-3.90;99.90
4604;DHT22;2314;48.272;11.562;2022-12-17T04:06:00;-3.90;99.90
4604;DHT22;2314;48.272;11.562;2022-12-17T04:08:45;-4.00;99.90
4604;DHT22;2314;48.272;11.562;2022-12-17T04:11:29;-4.00;99.90
4604;DHT22;2314;48.272;11.562;2022-12-17T04:14:13;-4.00;99.90
4604;DHT22;2314;48.272;11.562;2022-12-17T04:16:58;-4.00;99.90
4604;DHT22;2314;48.272;11.562;2022-12-17T04:19:46;-4.00;99.90
4604;DHT22;2314;48.272;11.562;2022-12-17T04:22:32;-4.00;99.90
4604;DHT22;2314;48.272;11.562;2022-12-17T04:25:22;-4.00;99.90
4604;DHT22;2314;48.272;11.562;2022-12-17T04:28:06;-3.90;99.90
4604;DHT22;2314;48.272;11.562;2022-12-17T04:30:51;-3.90;99.90
4604;DHT22;2314;48.272;11.562;2022-12-17T04:33:31;-4.00;99.90
4604;DHT22;2314;48.272;11.562;2022-12-17T04:36:16;-4.10;99.90
4604;DHT22;2314;48.272;11.562;2022-12-17T04:39:16;-4.00;99.90
4604;DHT22;2314;48.272;11.562;2022-12-17T04:42:01;-4.00;99.90
4604;DHT22;2314;48.272;11.562;2022-12-17T04:44:45;-4.10;99.90
4604;DHT22;2314;48.272;11.562;2022-12-17T04:47:30;-4.00;99.90
4604;DHT22;2314;48.272;11.562;2022-12-17T04:50:15;-4.00;99.90
4604;DHT22;2314;48.272;11.562;2022-12-17T04:53:00;-4.00;99.90
4604;DHT22;2314;48.272;11.562;2022-12-17T04:55:47;-4.00;99.90
4604;DHT22;2314;48.272;11.562;2022-12-17T04:58:31;-4.10;99.90
4604;DHT22;2314;48.272;11.562;2022-12-17T05:01:16;-4.10;99.90
4604;DHT22;2314;48.272;11.562;2022-12-17T05:04:01;-4.10;99.90
4604;DHT22;2314;48.272;11.562;2022-12-17T05:06:45;-4.20;99.90
4604;DHT22;2314;48.272;11.562;2022-12-17T05:09:30;-4.20;99.90
4604;DHT22;2314;48.272;11.562;2022-12-17T05:12:16;-4.20;99.90
4604;DHT22;2314;48.272;11.562;2022-12-17T05:14:57;-4.20;99.90
4604;DHT22;2314;48.272;11.562;2022-12-17T05:17:41;-4.30;99.90
4604;DHT22;2314;48.272;11.562;2022-12-17T05:20:31;-4.30;99.90
4604;DHT22;2314;48.272;11.562;2022-12-17T05:23:16;-4.30;99.90
4604;DHT22;2314;48.272;11.562;2022-12-17T05:26:04;-4.30;99.90
4604;DHT22;2314;48.272;11.562;2022-12-17T05:28:51;-4.40;99.90
4604;DHT22;2314;48.272;11.562;2022-12-17T05:31:36;-4.40;99.90
4604;DHT22;2314;48.272;11.562;2022-12-17T05:34:20;-4.40;99.90
4604;DHT22;2314;48.272;11.562;2022-12-17T05:37:07;-4.50;99.90
4604;DHT22;2314;48.272;11.562;2022-12-17T05:39:52;-4.50;99.90
4604;DHT22;2314;48.272;11.562;2022-12-17T05:42:36;-4.50;99.90
4604;DHT22;2314;48.272;11.562;2022-12-17T05:45:22;-4.50;99.90
4604;DHT22;2314;48.272;11.562;2022-12-17T05:48:07;-4.50;99.90
4604;DHT22;2314;48.272;11.562;2022-12-17T05:50:51;-4.60;99.90
4604;DHT22;2314;48.272;11.562;2022-12-17T05:53:36;-4.60;99.90
4604;DHT22;2314;48.272;11.562;2022-12-17T05:56:21;-4.70;99.90
4604;DHT22;2314;48.272;11.562;2022-12-17T05:59:06;-4.70;99.90
4604;DHT22;2314;48.272;11.562;2022-12-17T06:01:52;-4.80;99.90
4604;DHT22;2314;48.272;11.562;2022-12-17T06:04:36;-4.80;99.90
4604;DHT22;2314;48.272;11.562;2022-12-17T06:07:21;-4.90;99.90
4604;DHT22;2314;48.272;11.562;2022-12-17T06:10:05;-4.90;99.90
4604;DHT22;2314;48.272;11.562;2022-12-17T06:12:59;-5.00;99.90
4604;DHT22;2314;48.272;11.562;2022-12-17T06:15:47;-5.00;99.90
4604;DHT22;2314;48.272;11.562;2022-12-17T06:18:33;-5.00;99.90
4604;DHT22;2314;48.272;11.562;2022-12-17T06:21:17;-5.10;99.90
4604;DHT22;2314;48.272;11.562;2022-12-17T06:24:02;-5.00;99.90
4604;DHT22;2314;48.272;11.562;2022-12-17T06:26:47;-5.10;99.90
4604;DHT22;2314;48.272;11.562;2022-12-17T06:29:46;-5.10;99.90
4604;DHT22;2314;48.272;11.562;2022-12-17T06:32:31;-5.10;99.90
4604;DHT22;2314;48.272;11.562;2022-12-17T06:35:17;-5.10;99.90
4604;DHT22;2314;48.272;11.562;2022-12-17T06:38:04;-5.10;99.90
4604;DHT22;2314;48.272;11.562;2022-12-17T06:40:49;-5.10;99.90
4604;DHT22;2314;48.272;11.562;2022-12-17T06:43:34;-5.20;99.90
4604;DHT22;2314;48.272;11.562;2022-12-17T06:46:18;-5.20;99.90
4604;DHT22;2314;48.272;11.562;2022-12-17T06:49:03;-5.30;99.90
4604;DHT22;2314;48.272;11.562;2022-12-17T06:51:48;-5.30;99.90
4604;DHT22;2314;48.272;11.562;2022-12-17T06:54:33;-5.40;99.90
4604;DHT22;2314;48.272;11.562;2022-12-17T06:57:18;-5.40;99.90
4604;DHT22;2314;48.272;11.562;2022-12-17T07:00:03;-5.40;99.90
4604;DHT22;2314;48.272;11.562;2022-12-17T07:02:48;-5.50;99.90
4604;DHT22;2314;48.272;11.562;2022-12-17T07:05:38;-5.50;99.90
4604;DHT22;2314;48.272;11.562;2022-12-17T07:08:23;-5.50;99.90
4604;DHT22;2314;48.272;11.562;2022-12-17T07:11:08;-5.60;99.90
4604;DHT22;2314;48.272;11.562;2022-12-17T07:13:52;-5.50;99.90
4604;DHT22;2314;48.272;11.562;2022-12-17T07:16:37;-5.50;99.90
4604;DHT22;2314;48.272;11.562;2022-12-17T07:19:21;-5.50;99.90
4604;DHT22;2314;48.272;11.562;2022-12-17T07:22:06;-5.50;99.90
4604;DHT22;2314;48.272;11.562;2022-12-17T07:25:07;-5.60;99.90
4604;DHT22;2314;48.272;11.562;2022-12-17T07:27:52;-5.60;99.90
4604;DHT22;2314;48.272;11.562;2022-12-17T07:30:37;-5.60;99.90
4604;DHT22;2314;48.272;11.562;2022-12-17T07:33:21;-5.70;99.90
4604;DHT22;2314;48.272;11.562;2022-12-17T07:36:06;-5.70;99.90
4604;DHT22;2314;48.272;11.562;2022-12-17T07:38:59;-5.70;99.90
4604;DHT22;2314;48.272;11.562;2022-12-17T07:41:45;-5.70;99.90
4604;DHT22;2314;48.272;11.562;2022-12-17T07:44:29;-5.60;99.90
4604;DHT22;2314;48.272;11.562;2022-12-17T07:47:14;-5.60;99.90
4604;DHT22;2314;48.272;11.562;2022-12-17T07:49:59;-5.70;99.90
4604;DHT22;2314;48.272;11.562;2022-12-17T07:52:43;-5.60;99.90
4604;DHT22;2314;48.272;11.562;2022-12-17T07:55:28;-5.60;99.90
4604;DHT22;2314;48.272;11.562;2022-12-17T07:58:13;-5.40;99.90
4604;DHT22;2314;48.272;11.562;2022-12-17T08:00:59;-5.30;99.90
4604;DHT22;2314;48.272;11.562;2022-12-17T08:03:44;-5.10;99.90
4604;DHT22;2314;48.272;11.562;2022-12-17T08:06:29;-5.00;99.90
4604;DHT22;2314;48.272;11.562;2022-12-17T08:09:13;-4.80;99.90
4604;DHT22;2314;48.272;11.562;2022-12-17T08:11:58;-4.70;99.90
4604;DHT22;2314;48.272;11.562;2022-12-17T08:14:44;-4.40;99.90
4604;DHT22;2314;48.272;11.562;2022-12-17T08:17:28;-4.40;99.90
4604;DHT22;2314;48.272;11.562;2022-12-17T08:20:27;-4.30;99.90
4604;DHT22;2314;48.272;11.562;2022-12-17T08:23:08;-4.40;99.90
4604;DHT22;2314;48.272;11.562;2022-12-17T08:25:53;-4.30;99.90
4604;DHT22;2314;48.272;11.562;2022-12-17T08:28:37;-4.40;99.90
4604;DHT22;2314;48.272;11.562;2022-12-17T08:31:24;-4.40;99.90
4604;DHT22;2314;48.272;11.562;2022-12-17T08:34:09;-4.20;99.90
4604;DHT22;2314;48.272;11.562;2022-12-17T08:36:53;-4.40;99.90
4604;DHT22;2314;48.272;11.562;2022-12-17T08:39:38;-4.40;99.90
4604;DHT22;2314;48.272;11.562;2022-12-17T08:42:22;-4.40;99.90
4604;DHT22;2314;48.272;11.562;2022-12-17T08:45:08;-4.40;99.90
4604;DHT22;2314;48.272;11.562;2022-12-17T08:48:01;-4.50;99.90
4604;DHT22;2314;48.272;11.562;2022-12-17T08:50:46;-4.50;99.90
4604;DHT22;2314;48.272;11.562;2022-12-17T08:53:31;-4.70;99.90
4604;DHT22;2314;48.272;11.562;2022-12-17T08:56:15;-4.60;99.90
4604;DHT22;2314;48.272;11.562;2022-12-17T08:59:00;-4.60;99.90
4604;DHT22;2314;48.272;11.562;2022-12-17T09:01:44;-4.60;99.90
4604;DHT22;2314;48.272;11.562;2022-12-17T09:04:30;-4.60;99.90
4604;DHT22;2314;48.272;11.562;2022-12-17T09:07:15;-4.50;99.90
4604;DHT22;2314;48.272;11.562;2022-12-17T09:10:00;-4.60;99.90
4604;DHT22;2314;48.272;11.562;2022-12-17T09:12:44;-4.60;99.90
4604;DHT22;2314;48.272;11.562;2022-12-17T09:15:29;-4.50;99.90
4604;DHT22;2314;48.272;11.562;2022-12-17T09:18:17;-4.60;99.90
4604;DHT22;2314;48.272;11.562;2022-12-17T09:21:04;-4.50;99.90
4604;DHT22;2314;48.272;11.562;2022-12-17T09:23:49;-4.80;99.90
4604;DHT22;2314;48.272;11.562;2022-12-17T09:26:34;-4.80;99.90
4604;DHT22;2314;48.272;11.562;2022-12-17T09:29:19;-4.80;99.90
4604;DHT22;2314;48.272;11.562;2022-12-17T09:32:03;-4.80;99.90
4604;DHT22;2314;48.272;11.562;2022-12-17T09:34:48;-4.90;99.90
4604;DHT22;2314;48.272;11.562;2022-12-17T09:37:42;-4.90;99.90
4604;DHT22;2314;48.272;11.562;2022-12-17T09:40:35;-4.80;99.90
4604;DHT22;2314;48.272;11.562;2022-12-17T09:43:41;-4.70;99.90
4604;DHT22;2314;48.272;11.562;2022-12-17T09:46:33;-4.70;99.90
4604;DHT22;2314;48.272;11.562;2022-12-17T09:49:22;-4.70;99.90
4604;DHT22;2314;48.272;11.562;2022-12-17T09:52:17;-4.70;99.90
4604;DHT22;2314;48.272;11.562;2022-12-17T09:55:17;-4.60;99.90
4604;DHT22;2314;48.272;11.562;2022-12-17T09:58:03;-4.50;99.90
4604;DHT22;2314;48.272;11.562;2022-12-17T10:00:49;-4.40;99.90
4604;DHT22;2314;48.272;11.562;2022-12-17T10:03:36;-4.30;99.90
4604;DHT22;2314;48.272;11.562;2022-12-17T10:06:24;-4.20;99.90
4604;DHT22;2314;48.272;11.562;2022-12-17T10:09:12;-4.10;99.90
4604;DHT22;2314;48.272;11.562;2022-12-17T10:12:01;-4.10;99.90
4604;DHT22;2314;48.272;11.562;2022-12-17T10:14:54;-3.90;99.90
4604;DHT22;2314;48.272;11.562;2022-12-17T10:17:38;-4.00;99.90
4604;DHT22;2314;48.272;11.562;2022-12-17T10:20:27;-4.00;99.90
4604;DHT22;2314;48.272;11.562;2022-12-17T10:23:22;-4.00;99.90
4604;DHT22;2314;48.272;11.562;2022-12-17T10:26:07;-4.00;99.90
4604;DHT22;2314;48.272;11.562;2022-12-17T10:29:05;-4.10;99.90
4604;DHT22;2314;48.272;11.562;2022-12-17T10:31:53;-4.00;99.90
4604;DHT22;2314;48.272;11.562;2022-12-17T10:34:39;-3.80;99.90
4604;DHT22;2314;48.272;11.562;2022-12-17T10:37:26;-3.70;99.90
4604;DHT22;2314;48.272;11.562;2022-12-17T10:40:19;-3.80;99.90
4604;DHT22;2314;48.272;11.562;2022-12-17T10:43:22;-3.60;99.90
4604;DHT22;2314;48.272;11.562;2022-12-17T10:46:09;-3.60;99.90
4604;DHT22;2314;48.272;11.562;2022-12-17T10:49:03;-3.60;99.90
4604;DHT22;2314;48.272;11.562;2022-12-17T10:51:49;-3.50;99.90
4604;DHT22;2314;48.272;11.562;2022-12-17T10:54:31;-3.40;99.90
4604;DHT22;2314;48.272;11.562;2022-12-17T10:57:23;-3.30;99.90
4604;DHT22;2314;48.272;11.562;2022-12-17T11:00:23;-3.30;99.90
4604;DHT22;2314;48.272;11.562;2022-12-17T11:03:24;-3.20;99.90
4604;DHT22;2314;48.272;11.562;2022-12-17T11:06:13;-3.10;99.90
4604;DHT22;2314;48.272;11.562;2022-12-17T11:09:04;-3.10;99.90
4604;DHT22;2314;48.272;11.562;2022-12-17T11:11:49;-3.20;99.90
4604;DHT22;2314;48.272;11.562;2022-12-17T11:14:46;-3.10;99.90
4604;DHT22;2314;48.272;11.562;2022-12-17T11:17:35;-3.10;99.90
4604;DHT22;2314;48.272;11.562;2022-12-17T11:20:26;-3.00;99.90
4604;DHT22;2314;48.272;11.562;2022-12-17T11:23:18;-2.90;99.90
4604;DHT22;2314;48.272;11.562;2022-12-17T11:26:06;-2.90;99.90
4604;DHT22;2314;48.272;11.562;2022-12-17T11:28:53;-2.90;99.90
4604;DHT22;2314;48.272;11.562;2022-12-17T11:31:59;-2.70;99.90
4604;DHT22;2314;48.272;11.562;2022-12-17T11:35:03;-2.60;99.90
4604;DHT22;2314;48.272;11.562;2022-12-17T11:37:58;-2.70;99.90
4604;DHT22;2314;48.272;11.562;2022-12-17T11:40:50;-2.50;99.90
4604;DHT22;2314;48.272;11.562;2022-12-17T11:43:46;-2.50;99.90
4604;DHT22;2314;48.272;11.562;2022-12-17T11:46:40;-2.50;99.90
4604;DHT22;2314;48.272;11.562;2022-12-17T11:49:37;-2.60;99.90
4604;DHT22;2314;48.272;11.562;2022-12-17T11:52:29;-2.70;99.90
4604;DHT22;2314;48.272;11.562;2022-12-17T11:55:24;-2.60;99.90
4604;DHT22;2314;48.272;11.562;2022-12-17T11:58:17;-2.20;99.90
4604;DHT22;2314;48.272;11.562;2022-12-17T12:01:10;-2.20;99.90
4604;DHT22;2314;48.272;11.562;2022-12-17T12:04:08;-2.20;99.90
4604;DHT22;2314;48.272;11.562;2022-12-17T12:07:04;-2.30;99.90
4604;DHT22;2314;48.272;11.562;2022-12-17T12:09:55;-2.30;99.90
4604;DHT22;2314;48.272;11.562;2022-12-17T12:12:54;-2.10;99.90
4604;DHT22;2314;48.272;11.562;2022-12-17T12:15:54;-2.20;99.90
4604;DHT22;2314;48.272;11.562;2022-12-17T12:18:52;-2.20;99.90
4604;DHT22;2314;48.272;11.562;2022-12-17T12:21:50;-2.20;99.90
4604;DHT22;2314;48.272;11.562;2022-12-17T12:24:55;-2.10;99.90
4604;DHT22;2314;48.272;11.562;2022-12-17T12:27:54;-2.00;99.90
4604;DHT22;2314;48.272;11.562;2022-12-17T12:30:49;-1.90;99.90
4604;DHT22;2314;48.272;11.562;2022-12-17T12:33:45;-1.70;99.90
4604;DHT22;2314;48.272;11.562;2022-12-17T12:36:34;-1.80;99.90
4604;DHT22;2314;48.272;11.562;2022-12-17T12:39:35;-1.80;99.90
4604;DHT22;2314;48.272;11.562;2022-12-17T12:42:26;-1.60;99.90
4604;DHT22;2314;48.272;11.562;2022-12-17T12:45:30;-1.80;99.90
4604;DHT22;2314;48.272;11.562;2022-12-17T12:48:27;-1.80;99.90
4604;DHT22;2314;48.272;11.562;2022-12-17T12:51:19;-1.80;99.90
4604;DHT22;2314;48.272;11.562;2022-12-17T12:54:30;-1.80;99.90
4604;DHT22;2314;48.272;11.562;2022-12-17T12:57:28;-1.70;99.90
4604;DHT22;2314;48.272;11.562;2022-12-17T13:00:37;-1.80;99.90
4604;DHT22;2314;48.272;11.562;2022-12-17T13:03:25;-1.90;99.90
4604;DHT22;2314;48.272;11.562;2022-12-17T13:06:13;-2.00;99.90
4604;DHT22;2314;48.272;11.562;2022-12-17T13:09:05;-2.00;99.90
4604;DHT22;2314;48.272;11.562;2022-12-17T13:11:46;-2.10;99.90
4604;DHT22;2314;48.272;11.562;2022-12-17T13:14:17;-2.00;99.90
4604;DHT22;2314;48.272;11.562;2022-12-17T13:16:52;-2.00;99.90
4604;DHT22;2314;48.272;11.562;2022-12-17T13:19:33;-2.00;99.90
4604;DHT22;2314;48.272;11.562;2022-12-17T13:22:25;-1.80;99.90
4604;DHT22;2314;48.272;11.562;2022-12-17T13:25:12;-1.80;99.90
4604;DHT22;2314;48.272;11.562;2022-12-17T13:27:42;-1.90;99.90
4604;DHT22;2314;48.272;11.562;2022-12-17T13:30:21;-1.80;99.90
4604;DHT22;2314;48.272;11.562;2022-12-17T13:33:05;-1.90;99.90
4604;DHT22;2314;48.272;11.562;2022-12-17T13:35:56;-2.00;99.90
4604;DHT22;2314;48.272;11.562;2022-12-17T13:38:34;-2.00;99.90
4604;DHT22;2314;48.272;11.562;2022-12-17T13:41:10;-1.90;99.90
4604;DHT22;2314;48.272;11.562;2022-12-17T13:43:42;-1.90;99.90
4604;DHT22;2314;48.272;11.562;2022-12-17T13:46:19;-1.80;99.90
4604;DHT22;2314;48.272;11.562;2022-12-17T13:48:54;-1.90;99.90
4604;DHT22;2314;48.272;11.562;2022-12-17T13:51:23;-2.00;99.90
4604;DHT22;2314;48.272;11.562;2022-12-17T13:53:53;-2.00;99.90
4604;DHT22;2314;48.272;11.562;2022-12-17T13:56:25;-2.10;99.90
4604;DHT22;2314;48.272;11.562;2022-12-17T13:58:54;-2.20;99.90
4604;DHT22;2314;48.272;11.562;2022-12-17T14:01:22;-2.10;99.90
4604;DHT22;2314;48.272;11.562;2022-12-17T14:03:53;-2.30;99.90
4604;DHT22;2314;48.272;11.562;2022-12-17T14:06:23;-2.20;99.90
4604;DHT22;2314;48.272;11.562;2022-12-17T14:08:54;-2.30;99.90
4604;DHT22;2314;48.272;11.562;2022-12-17T14:11:23;-2.40;99.90
4604;DHT22;2314;48.272;11.562;2022-12-17T14:14:15;-2.60;99.90
4604;DHT22;2314;48.272;11.562;2022-12-17T14:16:46;-2.80;99.90
4604;DHT22;2314;48.272;11.562;2022-12-17T14:19:13;-2.70;99.90
4604;DHT22;2314;48.272;11.562;2022-12-17T14:21:40;-2.80;99.90
4604;DHT22;2314;48.272;11.562;2022-12-17T14:24:11;-2.80;99.90
4604;DHT22;2314;48.272;11.562;2022-12-17T14:26:51;-2.80;99.90
4604;DHT22;2314;48.272;11.562;2022-12-17T14:29:22;-2.80;99.90
4604;DHT22;2314;48.272;11.562;2022-12-17T14:31:54;-2.90;99.90
4604;DHT22;2314;48.272;11.562;2022-12-17T14:34:22;-3.00;99.90
4604;DHT22;2314;48.272;11.562;2022-12-17T14:36:54;-3.10;99.90
4604;DHT22;2314;48.272;11.562;2022-12-17T14:39:24;-3.10;99.90
4604;DHT22;2314;48.272;11.562;2022-12-17T14:41:55;-3.10;99.90
4604;DHT22;2314;48.272;11.562;2022-12-17T14:44:48;-3.20;99.90
4604;DHT22;2314;48.272;11.562;2022-12-17T14:47:19;-3.30;99.90
4604;DHT22;2314;48.272;11.562;2022-12-17T14:49:59;-3.30;99.90
4604;DHT22;2314;48.272;11.562;2022-12-17T14:52:40;-3.50;99.90
4604;DHT22;2314;48.272;11.562;2022-12-17T14:58:19;-3.70;99.90
4604;DHT22;2314;48.272;11.562;2022-12-17T15:00:50;-3.80;99.90
4604;DHT22;2314;48.272;11.562;2022-12-17T15:03:24;-3.90;99.90
4604;DHT22;2314;48.272;11.562;2022-12-17T15:05:56;-3.90;99.90
4604;DHT22;2314;48.272;11.562;2022-12-17T15:08:24;-4.10;99.90
4604;DHT22;2314;48.272;11.562;2022-12-17T15:10:52;-4.10;99.90
4604;DHT22;2314;48.272;11.562;2022-12-17T15:13:20;-4.20;99.90
4604;DHT22;2314;48.272;11.562;2022-12-17T15:15:47;-4.20;99.90
4604;DHT22;2314;48.272;11.562;2022-12-17T15:18:14;-4.30;99.90
4604;DHT22;2314;48.272;11.562;2022-12-17T15:20:41;-4.40;99.90
4604;DHT22;2314;48.272;11.562;2022-12-17T15:23:14;-4.40;99.90
4604;DHT22;2314;48.272;11.562;2022-12-17T15:25:42;-4.50;99.90
4604;DHT22;2314;48.272;11.562;2022-12-17T15:28:09;-4.60;99.90
4604;DHT22;2314;48.272;11.562;2022-12-17T15:30:38;-4.60;99.90
4604;DHT22;2314;48.272;11.562;2022-12-17T15:33:05;-4.70;99.90
4604;DHT22;2314;48.272;11.562;2022-12-17T15:35:33;-4.80;99.90
4604;DHT22;2314;48.272;11.562;2022-12-17T15:38:00;-4.90;99.90
4604;DHT22;2314;48.272;11.562;2022-12-17T15:40:27;-4.90;99.90
4604;DHT22;2314;48.272;11.562;2022-12-17T15:42:54;-5.00;99.90
4604;DHT22;2314;48.272;11.562;2022-12-17T15:45:35;-5.10;99.90
4604;DHT22;2314;48.272;11.562;2022-12-17T15:48:04;-5.10;99.90
4604;DHT22;2314;48.272;11.562;2022-12-17T15:50:31;-5.20;99.90
4604;DHT22;2314;48.272;11.562;2022-12-17T15:52:59;-5.30;99.90
4604;DHT22;2314;48.272;11.562;2022-12-17T15:55:26;-5.40;99.90
4604;DHT22;2314;48.272;11.562;2022-12-17T15:57:53;-5.40;99.90
4604;DHT22;2314;48.272;11.562;2022-12-17T16:00:20;-5.40;99.90
4604;DHT22;2314;48.272;11.562;2022-12-17T16:02:49;-5.50;99.90
4604;DHT22;2314;48.272;11.562;2022-12-17T16:05:18;-5.50;99.90
4604;DHT22;2314;48.272;11.562;2022-12-17T16:07:46;-5.60;99.90
4604;DHT22;2314;48.272;11.562;2022-12-17T16:10:14;-5.60;99.90
4604;DHT22;2314;48.272;11.562;2022-12-17T16:12:41;-5.60;99.90
4604;DHT22;2314;48.272;11.562;2022-12-17T16:15:09;-5.70;99.90
4604;DHT22;2314;48.272;11.562;2022-12-17T16:17:37;-5.70;99.90
4604;DHT22;2314;48.272;11.562;2022-12-17T16:20:05;-5.70;99.90
4604;DHT22;2314;48.272;11.562;2022-12-17T16:22:34;-5.70;99.90
4604;DHT22;2314;48.272;11.562;2022-12-17T16:25:01;-5.80;99.90
4604;DHT22;2314;48.272;11.562;2022-12-17T16:27:29;-5.80;99.90
4604;DHT22;2314;48.272;11.562;2022-12-17T16:29:56;-5.90;99.90
4604;DHT22;2314;48.272;11.562;2022-12-17T16:32:23;-5.90;99.90
4604;DHT22;2314;48.272;11.562;2022-12-17T16:34:50;-6.00;99.90
4604;DHT22;2314;48.272;11.562;2022-12-17T16:37:17;-6.00;99.90
4604;DHT22;2314;48.272;11.562;2022-12-17T16:39:46;-6.00;99.90
4604;DHT22;2314;48.272;11.562;2022-12-17T16:42:14;-6.10;99.90
4604;DHT22;2314;48.272;11.562;2022-12-17T16:44:41;-6.10;99.90
4604;DHT22;2314;48.272;11.562;2022-12-17T16:47:09;-6.10;99.90
4604;DHT22;2314;48.272;11.562;2022-12-17T16:49:36;-6.10;99.90
4604;DHT22;2314;48.272;11.562;2022-12-17T16:52:03;-6.10;99.90
4604;DHT22;2314;48.272;11.562;2022-12-17T16:54:31;-6.10;99.90
4604;DHT22;2314;48.272;11.562;2022-12-17T16:57:02;-6.10;99.90
4604;DHT22;2314;48.272;11.562;2022-12-17T16:59:29;-6.10;99.90
4604;DHT22;2314;48.272;11.562;2022-12-17T17:01:56;-6.20;99.90
4604;DHT22;2314;48.272;11.562;2022-12-17T17:04:24;-6.20;99.90
4604;DHT22;2314;48.272;11.562;2022-12-17T17:06:52;-6.20;99.90
4604;DHT22;2314;48.272;11.562;2022-12-17T17:09:22;-6.20;99.90
4604;DHT22;2314;48.272;11.562;2022-12-17T17:11:50;-6.20;99.90
4604;DHT22;2314;48.272;11.562;2022-12-17T17:14:18;-6.30;99.90
4604;DHT22;2314;48.272;11.562;2022-12-17T17:16:45;-6.30;99.90
4604;DHT22;2314;48.272;11.562;2022-12-17T17:19:12;-6.30;99.90
4604;DHT22;2314;48.272;11.562;2022-12-17T17:21:40;-6.30;99.90
4604;DHT22;2314;48.272;11.562;2022-12-17T17:24:11;-6.30;99.90
4604;DHT22;2314;48.272;11.562;2022-12-17T17:26:40;-6.30;99.90
4604;DHT22;2314;48.272;11.562;2022-12-17T17:29:07;-6.30;99.90
4604;DHT22;2314;48.272;11.562;2022-12-17T17:31:36;-6.40;99.90
4604;DHT22;2314;48.272;11.562;2022-12-17T17:34:07;-6.40;99.90